Time;durP1;ratioP1;P1;durP2;ratioP2;P2;SDS_P1;SDS_P2;PMS_P1;PMS_P2;Temp;Humidity;BMP_temperature;BMP_pressure;BME280_temperature;BME280_humidity;BME280_pressure;Samples;Min_cycle;Max_cycle;Signal;HPM_P1;HPM_P2
2021/08/04 00:00:39;;;;;;;4.38;3.92;;;13.90;99.90;;;;;;6301603;28;20090;-81
2021/08/04 00:03:39;;;;;;;4.57;3.38;;;13.90;99.90;;;;;;6318097;28;20046;-80
2021/08/04 00:06:40;;;;;;;3.70;3.30;;;13.90;99.90;;;;;;6317973;28;20027;-80
2021/08/04 00:09:41;;;;;;;4.60;3.40;;;13.90;99.90;;;;;;6318233;28;20034;-80
2021/08/04 00:12:41;;;;;;;6.47;3.65;;;13.80;99.90;;;;;;6284579;28;20457;-80
2021/08/04 00:15:42;;;;;;;4.20;3.25;;;13.90;99.90;;;;;;6301075;28;20044;-81
2021/08/04 00:18:42;;;;;;;4.60;4.00;;;13.80;99.90;;;;;;6301400;28;20038;-80
2021/08/04 00:21:43;;;;;;;5.72;3.40;;;13.80;99.90;;;;;;6319000;28;20024;-79
2021/08/04 00:24:44;;;;;;;4.30;3.30;;;13.80;99.90;;;;;;6300418;28;20146;-80
2021/08/04 00:27:44;;;;;;;4.57;3.65;;;13.80;99.90;;;;;;6317457;28;20024;-82
2021/08/04 00:30:45;;;;;;;4.70;3.70;;;13.80;99.90;;;;;;6300703;28;20039;-81
2021/08/04 00:33:45;;;;;;;5.80;3.70;;;13.80;99.90;;;;;;6300520;28;20024;-80
2021/08/04 00:36:46;;;;;;;5.45;3.28;;;13.80;99.90;;;;;;6318472;28;20532;-81
2021/08/04 00:39:46;;;;;;;4.85;4.05;;;13.70;99.90;;;;;;6317369;28;20024;-81
2021/08/04 00:42:47;;;;;;;5.18;3.40;;;13.70;99.90;;;;;;6300270;28;20032;-81
2021/08/04 00:45:47;;;;;;;4.00;3.40;;;13.70;99.90;;;;;;6300769;28;20051;-79
2021/08/04 00:48:48;;;;;;;4.93;3.70;;;13.80;99.90;;;;;;6299535;28;20393;-81
2021/08/04 00:51:49;;;;;;;7.85;3.53;;;13.70;99.90;;;;;;6300098;28;20036;-81
2021/08/04 00:54:49;;;;;;;3.95;3.55;;;13.70;99.90;;;;;;6300213;28;20024;-81
2021/08/04 00:57:50;;;;;;;3.95;3.50;;;13.70;99.90;;;;;;6283351;28;20152;-81
2021/08/04 01:00:55;;;;;;;7.90;3.33;;;13.80;99.90;;;;;;6284078;28;20016;-82
2021/08/04 01:03:58;;;;;;;5.60;3.20;;;13.70;99.90;;;;;;6283697;28;20028;-81
2021/08/04 01:07:11;;;;;;;5.25;3.22;;;13.70;99.90;;;;;;6284325;28;20123;-80
2021/08/04 01:10:22;;;;;;;4.30;3.22;;;13.70;99.90;;;;;;6317004;28;20050;-82
2021/08/04 01:13:28;;;;;;;7.72;3.15;;;13.60;99.90;;;;;;6317145;28;20449;-79
2021/08/04 01:16:32;;;;;;;7.47;3.20;;;13.80;99.90;;;;;;6300588;28;20115;-81
2021/08/04 01:19:45;;;;;;;5.85;3.60;;;14.10;99.90;;;;;;6300626;28;20024;-79
2021/08/04 01:23:32;;;;;;;4.70;3.22;;;13.60;99.90;;;;;;6284016;28;20024;-80
2021/08/04 01:26:38;;;;;;;4.68;3.08;;;13.60;99.90;;;;;;6239971;28;20029;-80
2021/08/04 01:29:38;;;;;;;4.55;3.60;;;14.10;99.90;;;;;;6239678;28;20407;-79
2021/08/04 01:32:40;;;;;;;6.65;3.75;;;;;;;;;;6239943;28;20247;-80
2021/08/04 01:35:41;;;;;;;4.22;3.35;;;13.80;99.90;;;;;;6239567;28;20030;-81
2021/08/04 01:38:42;;;;;;;3.47;3.17;;;;;;;;;;6239306;28;20548;-80
2021/08/04 01:41:42;;;;;;;5.53;3.47;;;13.60;99.90;;;;;;6240389;28;20026;-79
2021/08/04 01:44:43;;;;;;;4.15;3.25;;;13.80;99.90;;;;;;6239553;28;20073;-79
2021/08/04 01:47:43;;;;;;;5.53;3.50;;;13.80;99.90;;;;;;6237145;28;20049;-81
2021/08/04 01:50:44;;;;;;;4.10;3.22;;;13.80;99.90;;;;;;6230701;28;20041;-81
2021/08/04 01:53:45;;;;;;;4.07;3.42;;;13.80;99.90;;;;;;6238934;28;20148;-80
2021/08/04 01:56:45;;;;;;;5.28;3.17;;;13.70;99.90;;;;;;6246827;28;20066;-81
2021/08/04 01:59:46;;;;;;;5.75;4.00;;;13.70;99.90;;;;;;6316587;28;20028;-79
2021/08/04 02:02:46;;;;;;;3.72;3.33;;;13.70;99.90;;;;;;6287864;28;20024;-83
2021/08/04 02:05:47;;;;;;;6.63;3.60;;;13.70;99.90;;;;;;6321583;28;20039;-81
2021/08/04 02:08:57;;;;;;;6.40;3.83;;;13.60;99.90;;;;;;6304376;28;20031;-83
2021/08/04 02:12:05;;;;;;;7.60;3.80;;;13.60;99.90;;;;;;6287790;28;20155;-83
2021/08/04 02:15:17;;;;;;;5.20;3.50;;;13.80;99.90;;;;;;6287282;28;20040;-80
2021/08/04 02:18:18;;;;;;;6.80;3.13;;;13.80;99.90;;;;;;6305516;28;20036;-81
2021/08/04 02:21:19;;;;;;;4.60;3.60;;;13.50;99.90;;;;;;6303929;28;20374;-80
2021/08/04 02:24:19;;;;;;;5.25;3.33;;;13.50;99.90;;;;;;6304115;28;20070;-79
2021/08/04 02:27:20;;;;;;;3.88;3.47;;;;;;;;;;6303860;28;20023;-81
2021/08/04 02:30:21;;;;;;;5.28;3.55;;;13.50;99.90;;;;;;6322013;28;20020;-81
2021/08/04 02:33:21;;;;;;;4.15;3.30;;;13.50;99.90;;;;;;6321500;28;20039;-82
2021/08/04 02:36:22;;;;;;;4.75;3.83;;;13.80;99.90;;;;;;6303365;28;20405;-82
2021/08/04 02:39:23;;;;;;;3.78;3.35;;;13.50;99.90;;;;;;6286434;28;20024;-82
2021/08/04 02:42:23;;;;;;;4.97;3.63;;;13.60;99.90;;;;;;6303755;28;20110;-80
2021/08/04 02:45:24;;;;;;;4.20;3.50;;;13.60;99.90;;;;;;6319970;28;20043;-80
2021/08/04 02:48:25;;;;;;;3.78;3.10;;;13.60;99.90;;;;;;6303402;28;20024;-82
2021/08/04 02:51:26;;;;;;;4.78;3.63;;;13.50;99.90;;;;;;6319531;28;20031;-81
2021/08/04 02:54:27;;;;;;;8.00;4.85;;;13.40;99.90;;;;;;6303128;28;20052;-82
2021/08/04 02:57:27;;;;;;;6.40;4.15;;;13.80;99.90;;;;;;6303493;28;20028;-81
2021/08/04 03:00:28;;;;;;;6.43;3.78;;;13.70;99.90;;;;;;6286400;28;20043;-81
2021/08/04 03:03:29;;;;;;;6.30;3.35;;;;;;;;;;6286454;28;20415;-80
2021/08/04 03:06:30;;;;;;;4.25;3.20;;;;;;;;;;6286329;28;20074;-79
2021/08/04 03:09:31;;;;;;;6.38;3.80;;;;;;;;;;6320974;28;20425;-80
2021/08/04 03:12:32;;;;;;;4.90;3.50;;;;;;;;;;6318256;28;20020;-81
2021/08/04 03:15:33;;;;;;;3.78;3.25;;;13.40;99.90;;;;;;6319480;28;20429;-82
2021/08/04 03:18:33;;;;;;;4.97;3.50;;;13.30;99.90;;;;;;6286070;28;20027;-81
2021/08/04 03:21:34;;;;;;;3.95;3.53;;;;;;;;;;6302394;28;20032;-80
2021/08/04 03:24:35;;;;;;;4.13;3.33;;;;;;;;;;6320438;28;20458;-82
2021/08/04 03:27:36;;;;;;;5.60;3.50;;;;;;;;;;6319146;28;20028;-82
2021/08/04 03:30:37;;;;;;;4.47;3.40;;;;;;;;;;6320532;28;20075;-80
2021/08/04 03:33:38;;;;;;;3.78;3.40;;;13.50;99.90;;;;;;6318782;28;20020;-80
2021/08/04 03:36:38;;;;;;;6.03;3.60;;;13.40;99.90;;;;;;6302015;28;20040;-80
2021/08/04 03:39:39;;;;;;;4.28;3.45;;;13.40;99.90;;;;;;6285040;28;20119;-82
2021/08/04 03:42:40;;;;;;;4.95;3.40;;;13.40;99.90;;;;;;6285437;28;20031;-80
2021/08/04 03:45:40;;;;;;;3.92;3.22;;;13.50;99.90;;;;;;6285146;28;20499;-81
2021/08/04 03:48:41;;;;;;;4.95;3.33;;;13.40;99.90;;;;;;6320675;28;20024;-82
2021/08/04 03:51:41;;;;;;;3.70;3.35;;;13.40;99.90;;;;;;6318758;28;20032;-81
2021/08/04 03:54:42;;;;;;;4.75;3.70;;;13.40;99.90;;;;;;6320201;28;20032;-80
2021/08/04 03:57:42;;;;;;;6.63;3.60;;;13.40;99.90;;;;;;6319686;28;20051;-81
2021/08/04 04:00:45;;;;;;;3.95;3.50;;;13.40;99.90;;;;;;6318264;28;20016;-80
2021/08/04 04:03:46;;;;;;;5.35;3.70;;;13.30;99.90;;;;;;6318339;28;20386;-80
2021/08/04 04:06:46;;;;;;;6.35;3.70;;;13.60;99.90;;;;;;6301063;28;20060;-82
2021/08/04 04:09:47;;;;;;;4.10;3.70;;;13.50;99.90;;;;;;6301265;28;20136;-81
2021/08/04 04:12:47;;;;;;;4.03;3.20;;;13.50;99.90;;;;;;6318585;28;20028;-81
2021/08/04 04:15:48;;;;;;;4.40;3.47;;;13.50;99.90;;;;;;6319269;28;20048;-81
2021/08/04 04:18:49;;;;;;;5.07;3.55;;;13.40;99.90;;;;;;6318216;28;20031;-80
2021/08/04 04:21:50;;;;;;;4.20;3.70;;;13.50;99.90;;;;;;6318084;28;20335;-81
2021/08/04 04:24:50;;;;;;;5.07;3.80;;;13.50;99.90;;;;;;6300471;28;20039;-80
2021/08/04 04:27:51;;;;;;;4.38;3.65;;;13.40;99.90;;;;;;6317467;28;20081;-81
2021/08/04 04:30:52;;;;;;;4.53;3.60;;;13.30;99.90;;;;;;6300760;28;20020;-82
2021/08/04 04:33:52;;;;;;;4.35;3.40;;;13.50;99.90;;;;;;6300582;28;20112;-80
2021/08/04 04:36:53;;;;;;;3.65;3.22;;;13.40;99.90;;;;;;6317582;28;20521;-80
2021/08/04 04:39:54;;;;;;;5.53;3.65;;;13.70;99.90;;;;;;6318657;28;20046;-81
2021/08/04 04:42:55;;;;;;;5.43;3.42;;;13.50;99.90;;;;;;6317615;28;20514;-80
2021/08/04 04:45:55;;;;;;;6.00;3.83;;;13.60;99.90;;;;;;6300545;28;20715;-80
2021/08/04 04:48:56;;;;;;;5.60;3.78;;;13.50;99.90;;;;;;6317249;28;20137;-79
2021/08/04 04:51:56;;;;;;;5.35;3.85;;;13.60;99.90;;;;;;6318657;28;20051;-81
2021/08/04 04:54:57;;;;;;;5.03;3.85;;;13.80;99.90;;;;;;6283781;28;20061;-80
2021/08/04 04:57:58;;;;;;;6.55;3.47;;;13.60;99.90;;;;;;6316318;28;20032;-81
2021/08/04 05:00:58;;;;;;;5.55;3.95;;;;;;;;;;6299767;28;20024;-80
2021/08/04 05:03:59;;;;;;;4.38;3.88;;;13.70;99.90;;;;;;6315899;28;20271;-82
2021/08/04 05:07:00;;;;;;;4.22;3.38;;;13.70;99.90;;;;;;6317437;28;20031;-82
2021/08/04 05:10:00;;;;;;;11.20;4.28;;;13.80;99.90;;;;;;6299294;28;20097;-81
2021/08/04 05:13:01;;;;;;;5.90;3.97;;;13.80;99.90;;;;;;6317433;28;20020;-83
2021/08/04 05:16:02;;;;;;;4.65;3.70;;;;;;;;;;6299737;28;20416;-84
2021/08/04 05:19:03;;;;;;;6.03;3.75;;;;;;;;;;6299143;28;20588;-85
2021/08/04 05:22:04;;;;;;;3.97;3.50;;;14.10;99.90;;;;;;6316420;28;20032;-82
2021/08/04 05:25:05;;;;;;;5.55;3.65;;;15.10;99.90;;;;;;6316299;28;20058;-84
2021/08/04 05:28:05;;;;;;;4.13;3.15;;;15.80;99.90;;;;;;6282295;28;20058;-83
2021/08/04 05:31:06;;;;;;;5.18;3.60;;;16.40;99.90;;;;;;6282261;28;20590;-84
2021/08/04 05:34:07;;;;;;;5.55;3.28;;;16.70;99.90;;;;;;6281362;28;20020;-84
2021/08/04 05:37:07;;;;;;;4.00;3.20;;;17.70;99.90;;;;;;6304792;28;20119;-83
2021/08/04 05:40:08;;;;;;;5.93;3.13;;;18.40;99.90;;;;;;6287448;28;20389;-84
2021/08/04 05:43:09;;;;;;;4.13;3.33;;;18.70;99.90;;;;;;6304543;28;20072;-85
2021/08/04 05:46:10;;;;;;;3.90;3.10;;;;;;;;;;6287582;28;20036;-85
2021/08/04 05:49:10;;;;;;;6.20;3.60;;;18.50;99.90;;;;;;6290951;28;20434;-87
2021/08/04 05:52:17;;;;;;;5.05;3.30;;;19.60;99.90;;;;;;6287967;28;20063;-85
2021/08/04 05:55:18;;;;;;;5.03;3.08;;;19.60;99.90;;;;;;6286755;28;20501;-83
2021/08/04 05:58:18;;;;;;;3.40;2.88;;;20.00;99.90;;;;;;6302259;28;20028;-83
2021/08/04 06:01:19;;;;;;;3.38;3.00;;;20.60;99.90;;;;;;6289658;28;20031;-83
2021/08/04 06:04:19;;;;;;;5.70;3.17;;;19.80;99.90;;;;;;6321098;28;20432;-85
2021/08/04 06:07:20;;;;;;;5.30;3.00;;;19.30;99.90;;;;;;6317868;28;20031;-84
2021/08/04 06:10:21;;;;;;;4.82;3.35;;;19.10;99.90;;;;;;6287145;28;20370;-84
2021/08/04 06:13:22;;;;;;;3.28;2.97;;;;;;;;;;6303060;28;20047;-85
2021/08/04 06:16:23;;;;;;;5.60;3.53;;;18.70;99.90;;;;;;6303512;28;20039;-84
2021/08/04 06:19:23;;;;;;;3.75;2.97;;;18.90;99.90;;;;;;6303997;28;20042;-86
2021/08/04 06:22:24;;;;;;;3.15;2.85;;;;;;;;;;6319115;28;20060;-86
2021/08/04 06:25:25;;;;;;;3.55;2.90;;;;;;;;;;6303045;28;20035;-87
2021/08/04 06:28:31;;;;;;;4.13;2.92;;;19.30;99.90;;;;;;6293392;28;20067;-88
2021/08/04 06:31:33;;;;;;;3.40;3.10;;;;;;;;;;6286193;28;20027;-89
2021/08/04 06:34:34;;;;;;;3.97;2.77;;;;;;;;;;6303114;28;20028;-85
2021/08/04 06:37:35;;;;;;;3.55;3.15;;;20.50;99.90;;;;;;6300955;28;20040;-82
2021/08/04 06:40:35;;;;;;;3.05;2.75;;;20.70;99.90;;;;;;6303033;28;20384;-82
2021/08/04 06:43:36;;;;;;;5.07;2.70;;;20.90;99.90;;;;;;6319792;28;20024;-83
2021/08/04 06:46:39;;;;;;;4.22;2.95;;;20.60;99.90;;;;;;6301379;28;20036;-81
2021/08/04 06:49:40;;;;;;;5.18;3.10;;;;;;;;;;6302450;28;20512;-85
2021/08/04 06:52:40;;;;;;;3.45;3.13;;;20.10;99.90;;;;;;6317182;28;20052;-83
2021/08/04 06:55:41;;;;;;;4.13;2.90;;;19.80;99.90;;;;;;6302574;28;20478;-82
2021/08/04 06:58:42;;;;;;;4.63;3.47;;;;;;;;;;6302967;28;20058;-87
2021/08/04 07:01:44;;;;;;;3.88;3.10;;;19.50;99.90;;;;;;6286233;28;20107;-81
2021/08/04 07:04:45;;;;;;;5.22;3.10;;;20.00;99.90;;;;;;6286087;28;20028;-81
2021/08/04 07:07:46;;;;;;;5.20;3.00;;;19.80;99.90;;;;;;6302746;28;20081;-82
2021/08/04 07:10:48;;;;;;;3.08;2.78;;;19.60;99.90;;;;;;6319678;28;20063;-81
2021/08/04 07:13:50;;;;;;;6.43;3.28;;;19.40;99.90;;;;;;6303115;28;20016;-81
2021/08/04 07:16:50;;;;;;;3.20;2.88;;;;;;;;;;6285650;28;20044;-82
2021/08/04 07:19:51;;;;;;;4.03;2.90;;;19.20;99.90;;;;;;6320619;28;20044;-82
2021/08/04 07:22:52;;;;;;;4.20;3.10;;;;;;;;;;6285314;28;20028;-81
2021/08/04 07:25:53;;;;;;;5.35;3.05;;;;;;;;;;6318173;28;20074;-83
2021/08/04 07:28:56;;;;;;;4.20;3.15;;;;;;;;;;6317935;28;20067;-85
2021/08/04 07:31:57;;;;;;;7.57;3.33;;;;;;;;;;6302150;28;20027;-83
2021/08/04 07:35:00;;;;;;;3.63;3.20;;;;;;;;;;6302169;28;20367;-84
2021/08/04 07:38:01;;;;;;;4.95;3.00;;;;;;;;;;6301892;28;20450;-83
2021/08/04 07:41:04;;;;;;;3.05;2.72;;;;;;;;;;6319935;28;20066;-84
2021/08/04 07:44:05;;;;;;;3.15;2.80;;;19.90;99.90;;;;;;6318998;28;20031;-83
2021/08/04 07:47:06;;;;;;;3.60;3.03;;;20.00;99.90;;;;;;6299264;28;20024;-84
2021/08/04 07:50:07;;;;;;;3.42;2.90;;;20.30;99.90;;;;;;6285365;28;20032;-82
2021/08/04 07:53:07;;;;;;;3.05;2.72;;;20.00;99.90;;;;;;6284625;28;20044;-85
2021/08/04 07:56:08;;;;;;;4.03;3.13;;;20.20;99.90;;;;;;6301367;28;20048;-85
2021/08/04 07:59:09;;;;;;;3.72;3.22;;;20.30;99.90;;;;;;6284496;28;20054;-84
2021/08/04 08:02:09;;;;;;;4.23;3.07;;;20.40;99.90;;;;;;6285130;28;20389;-84
2021/08/04 08:05:10;;;;;;;3.10;2.80;;;20.50;99.90;;;;;;6301451;28;20030;-85
2021/08/04 08:08:12;;;;;;;4.47;3.22;;;20.70;99.90;;;;;;6284136;28;20454;-85
2021/08/04 08:11:13;;;;;;;3.92;3.17;;;20.80;99.90;;;;;;6285181;28;20062;-85
2021/08/04 08:14:14;;;;;;;3.75;2.90;;;;;;;;;;6284650;28;20032;-87
2021/08/04 08:17:16;;;;;;;5.15;2.75;;;;;;;;;;6291324;28;20059;-91
2021/08/04 08:20:17;;;;;;;7.55;3.28;;;20.80;99.80;;;;;;6300491;28;20024;-86
2021/08/04 08:23:18;;;;;;;3.80;3.10;;;;;;;;;;6300692;28;20028;-85
2021/08/04 08:26:21;;;;;;;3.40;3.00;;;20.80;99.90;;;;;;6300763;28;20413;-86
2021/08/04 08:29:22;;;;;;;3.72;3.22;;;20.70;99.90;;;;;;6283985;28;20031;-86
2021/08/04 08:32:26;;;;;;;5.22;3.08;;;20.50;99.90;;;;;;6284238;28;20016;-85
2021/08/04 08:35:26;;;;;;;3.13;2.60;;;21.40;99.90;;;;;;6283599;28;20210;-86
2021/08/04 08:38:27;;;;;;;5.05;2.97;;;;;;;;;;6300950;28;20019;-85
2021/08/04 08:41:28;;;;;;;3.42;3.10;;;20.70;99.90;;;;;;6300221;28;20112;-84
2021/08/04 08:44:29;;;;;;;4.60;3.22;;;20.60;99.90;;;;;;6283969;28;20042;-86
2021/08/04 08:47:30;;;;;;;4.63;3.15;;;;;;;;;;6284020;28;20524;-85
2021/08/04 08:50:30;;;;;;;3.58;2.90;;;20.60;99.90;;;;;;6299107;28;20063;-86
2021/08/04 08:53:32;;;;;;;3.05;2.47;;;20.60;99.90;;;;;;6281932;28;20079;-86
2021/08/04 08:56:33;;;;;;;3.58;2.92;;;20.40;99.90;;;;;;6297208;28;20055;-83
2021/08/04 08:59:33;;;;;;;4.53;3.05;;;20.60;99.90;;;;;;6283084;28;20028;-82
2021/08/04 09:02:34;;;;;;;4.43;3.47;;;21.20;99.90;;;;;;6299743;28;20540;-83
2021/08/04 09:05:53;;;;;;;3.47;3.03;;;21.10;99.90;;;;;;6316526;28;20016;-82
2021/08/04 09:08:54;;;;;;;3.67;3.00;;;21.30;99.80;;;;;;6284077;28;20031;-82
2021/08/04 09:12:16;;;;;;;6.70;3.72;;;21.60;99.90;;;;;;6299396;28;20052;-83
2021/08/04 09:15:32;;;;;;;4.47;3.35;;;21.70;99.90;;;;;;6317717;28;20432;-81
2021/08/04 09:18:51;;;;;;;14.48;3.97;;;22.00;98.30;;;;;;6300529;28;20061;-81
2021/08/04 09:22:06;;;;;;;3.45;2.90;;;22.20;98.40;;;;;;6316642;28;20028;-82
2021/08/04 09:25:08;;;;;;;3.80;3.00;;;22.50;98.70;;;;;;6316452;28;20024;-82
2021/08/04 09:28:09;;;;;;;3.35;2.83;;;23.00;99.90;;;;;;6315219;28;20035;-83
2021/08/04 09:31:10;;;;;;;3.78;3.03;;;;;;;;;;6316792;28;20032;-84
2021/08/04 09:34:35;;;;;;;5.80;2.80;;;22.90;96.20;;;;;;6312853;28;20032;-81
2021/08/04 09:37:36;;;;;;;3.38;3.08;;;23.30;96.30;;;;;;6317317;28;20036;-82
2021/08/04 09:40:36;;;;;;;5.35;3.35;;;23.30;96.90;;;;;;6316127;28;20031;-81
2021/08/04 09:43:37;;;;;;;4.95;2.78;;;23.20;97.00;;;;;;6316465;28;20047;-82
2021/08/04 09:46:38;;;;;;;4.68;3.35;;;23.20;97.10;;;;;;6299206;28;20486;-80
2021/08/04 09:49:40;;;;;;;3.63;2.95;;;23.30;96.60;;;;;;6282705;28;20481;-81
2021/08/04 09:52:54;;;;;;;3.38;2.78;;;22.90;96.30;;;;;;6282346;28;20060;-80
2021/08/04 09:56:13;;;;;;;6.10;2.95;;;23.00;96.50;;;;;;6299823;28;20036;-80
2021/08/04 09:59:13;;;;;;;4.32;3.33;;;22.90;95.80;;;;;;6315775;28;20458;-81
2021/08/04 10:02:28;;;;;;;4.78;3.33;;;22.80;97.40;;;;;;6316251;28;20067;-79
2021/08/04 10:05:28;;;;;;;4.75;3.30;;;22.80;96.60;;;;;;6314803;28;20111;-79
2021/08/04 10:08:29;;;;;;;4.47;3.65;;;22.70;97.70;;;;;;6315696;28;20508;-82
2021/08/04 10:11:30;;;;;;;10.18;4.10;;;22.90;97.60;;;;;;6299173;28;20016;-84
2021/08/04 10:14:30;;;;;;;6.43;3.55;;;23.00;96.70;;;;;;6299427;28;20443;-85
2021/08/04 10:17:31;;;;;;;9.50;4.18;;;23.00;99.90;;;;;;6298641;28;20044;-85
2021/08/04 10:20:31;;;;;;;5.63;3.30;;;23.00;99.90;;;;;;6282769;28;20077;-82
2021/08/04 10:23:32;;;;;;;3.90;2.85;;;22.90;97.30;;;;;;6286659;28;20032;-81
2021/08/04 10:26:34;;;;;;;3.08;2.78;;;22.70;96.80;;;;;;6287177;28;20024;-82
2021/08/04 10:29:34;;;;;;;4.95;3.13;;;22.70;99.90;;;;;;6322083;28;20020;-81
2021/08/04 10:32:35;;;;;;;4.40;3.45;;;22.80;99.90;;;;;;6320569;28;20458;-82
2021/08/04 10:35:36;;;;;;;3.80;3.15;;;22.50;99.90;;;;;;6303454;28;20123;-82
2021/08/04 10:38:41;;;;;;;3.80;3.17;;;22.20;99.90;;;;;;6285442;28;20052;-82
2021/08/04 10:42:01;;;;;;;4.18;3.40;;;22.20;98.30;;;;;;6303361;28;20031;-82
2021/08/04 10:45:22;;;;;;;3.90;3.45;;;22.00;99.90;;;;;;6321252;28;20097;-80
2021/08/04 10:48:24;;;;;;;5.70;3.20;;;21.90;99.40;;;;;;6321416;28;20064;-82
2021/08/04 10:51:25;;;;;;;3.72;3.10;;;21.80;99.40;;;;;;6303291;28;20027;-80
2021/08/04 10:54:25;;;;;;;3.65;3.33;;;21.50;98.50;;;;;;6319896;28;20039;-81
2021/08/04 10:57:26;;;;;;;4.70;3.58;;;21.40;99.30;;;;;;6303186;28;20043;-81
2021/08/04 11:00:27;;;;;;;4.88;3.40;;;21.10;99.70;;;;;;6303058;28;20031;-80
2021/08/04 11:03:51;;;;;;;4.03;3.30;;;19.00;99.90;;;;;;6319456;28;20028;-80
2021/08/04 11:07:19;;;;;;;3.40;3.10;;;20.90;99.90;;;;;;6321100;28;20036;-80
2021/08/04 11:10:20;;;;;;;5.35;4.10;;;;;;;;;;6317458;28;20044;-80
2021/08/04 11:13:46;;;;;;;4.35;3.38;;;20.70;99.90;;;;;;6286263;28;20032;-81
2021/08/04 11:16:58;;;;;;;7.53;4.07;;;20.70;99.90;;;;;;6320820;28;20035;-81
2021/08/04 11:20:01;;;;;;;4.20;3.28;;;;;;;;;;6304061;28;20039;-81
2021/08/04 11:23:05;;;;;;;5.35;3.50;;;;;;;;;;6321006;28;20048;-81
2021/08/04 11:26:41;;;;;;;3.67;3.33;;;20.50;99.90;;;;;;6320983;28;20055;-81
2021/08/04 11:29:43;;;;;;;5.93;3.58;;;20.30;99.90;;;;;;6242321;28;20494;-81
2021/08/04 11:32:44;;;;;;;3.92;3.53;;;;;;;;;;6241478;28;20040;-80
2021/08/04 11:36:08;;;;;;;5.72;3.63;;;20.20;99.90;;;;;;6225833;28;20057;-80
2021/08/04 11:39:09;;;;;;;4.93;3.63;;;;;;;;;;6242580;28;20144;-80
2021/08/04 11:42:14;;;;;;;4.00;3.20;;;20.10;99.90;;;;;;6242376;28;20130;-81
2021/08/04 11:45:15;;;;;;;5.70;4.45;;;;;;;;;;6242082;28;20272;-80
2021/08/04 11:48:15;;;;;;;4.35;3.83;;;20.10;99.90;;;;;;6241976;28;20132;-81
2021/08/04 11:51:16;;;;;;;3.92;3.15;;;19.90;99.90;;;;;;6242296;28;20478;-80
2021/08/04 11:54:30;;;;;;;4.45;3.90;;;19.90;99.90;;;;;;6225183;28;20053;-80
2021/08/04 11:57:36;;;;;;;6.38;3.85;;;20.00;99.90;;;;;;6241275;28;20404;-80
2021/08/04 12:00:36;;;;;;;5.95;4.22;;;19.90;99.90;;;;;;6225232;28;20103;-81
2021/08/04 12:03:37;;;;;;;4.60;3.83;;;19.70;99.90;;;;;;6286533;28;20356;-80
2021/08/04 12:06:39;;;;;;;5.03;4.18;;;19.80;99.90;;;;;;6318068;28;20114;-83
2021/08/04 12:09:40;;;;;;;7.03;4.68;;;19.70;99.90;;;;;;6284747;28;20032;-82
2021/08/04 12:12:48;;;;;;;4.55;3.70;;;19.60;99.90;;;;;;6318379;28;20357;-83
2021/08/04 12:15:49;;;;;;;6.10;5.50;;;19.50;99.90;;;;;;6301878;28;20036;-84
2021/08/04 12:18:50;;;;;;;6.93;4.80;;;19.50;99.90;;;;;;6300883;28;20054;-84
2021/08/04 12:21:51;;;;;;;5.72;3.97;;;19.40;99.90;;;;;;6284167;28;20028;-81
2021/08/04 12:24:59;;;;;;;4.68;4.20;;;19.50;99.90;;;;;;6318160;28;20047;-80
2021/08/04 12:28:00;;;;;;;4.68;4.20;;;19.50;99.90;;;;;;6317237;28;20032;-82
2021/08/04 12:31:00;;;;;;;5.45;3.92;;;19.50;99.90;;;;;;6284077;28;20435;-81
2021/08/04 12:34:07;;;;;;;5.80;4.38;;;19.40;99.90;;;;;;6317157;28;20449;-80
2021/08/04 12:37:10;;;;;;;6.03;4.32;;;19.30;99.90;;;;;;6284671;28;20593;-81
2021/08/04 12:40:13;;;;;;;4.22;3.80;;;19.30;99.90;;;;;;6284511;28;20354;-81
2021/08/04 12:43:13;;;;;;;4.80;3.97;;;19.30;99.90;;;;;;6300773;28;20034;-81
2021/08/04 12:46:14;;;;;;;4.72;3.63;;;19.20;99.90;;;;;;6284013;28;20362;-81
2021/08/04 12:49:21;;;;;;;4.88;4.03;;;19.10;99.90;;;;;;6318804;28;20031;-81
2021/08/04 12:52:21;;;;;;;7.13;4.43;;;19.10;99.90;;;;;;6284150;28;20052;-84
2021/08/04 12:55:23;;;;;;;7.05;4.28;;;19.00;99.90;;;;;;6299916;28;20036;-83
2021/08/04 12:58:24;;;;;;;4.95;3.85;;;18.90;99.90;;;;;;6284060;28;20115;-81
2021/08/04 13:01:24;;;;;;;6.30;4.45;;;18.60;99.90;;;;;;6318863;28;20030;-82
2021/08/04 13:04:29;;;;;;;6.82;4.60;;;18.50;99.90;;;;;;6318548;28;20102;-81
2021/08/04 13:07:42;;;;;;;6.35;4.30;;;18.20;99.90;;;;;;6300485;28;20024;-82
2021/08/04 13:10:43;;;;;;;5.68;4.32;;;18.50;99.90;;;;;;6300466;28;20036;-81
2021/08/04 13:14:03;;;;;;;5.30;4.43;;;18.10;99.90;;;;;;6300332;28;20093;-84
2021/08/04 13:17:03;;;;;;;5.05;3.80;;;18.00;99.90;;;;;;6283085;28;20035;-85
2021/08/04 13:20:09;;;;;;;8.02;4.43;;;18.40;99.90;;;;;;6300084;28;20426;-82
2021/08/04 13:23:11;;;;;;;8.13;4.80;;;18.20;99.90;;;;;;6316382;28;20024;-82
2021/08/04 13:26:14;;;;;;;;;;;18.20;99.90;;;;;;6300588;28;20028;-82
2021/08/04 13:29:28;;;;;;;5.50;3.90;;;18.10;99.90;;;;;;6316492;28;19998;-80
2021/08/04 13:32:29;;;;;;;5.10;4.18;;;18.10;99.90;;;;;;6316511;28;20027;-81
2021/08/04 13:35:30;;;;;;;5.10;3.95;;;;;;;;;;6316650;28;20028;-81
2021/08/04 13:38:30;;;;;;;6.32;4.65;;;18.00;99.90;;;;;;6315961;28;20013;-80
2021/08/04 13:41:31;;;;;;;6.68;4.00;;;18.40;99.90;;;;;;6299368;28;20533;-81
2021/08/04 13:44:32;;;;;;;5.63;4.38;;;18.50;99.90;;;;;;6299860;28;20074;-81
2021/08/04 13:47:32;;;;;;;9.02;4.82;;;18.60;99.90;;;;;;6317624;28;20031;-81
2021/08/04 13:50:33;;;;;;;6.57;4.63;;;18.80;99.90;;;;;;6316441;28;20052;-81
2021/08/04 13:53:34;;;;;;;4.95;4.45;;;18.90;99.90;;;;;;6316045;28;20040;-80
2021/08/04 13:56:34;;;;;;;5.70;4.22;;;18.90;99.90;;;;;;6318109;28;20431;-82
2021/08/04 13:59:35;;;;;;;5.00;4.30;;;18.90;99.90;;;;;;6321365;28;20024;-83
2021/08/04 14:02:36;;;;;;;6.20;4.03;;;18.90;99.90;;;;;;6304125;28;20032;-82
2021/08/04 14:05:38;;;;;;;6.35;5.40;;;19.00;99.90;;;;;;6321253;28;20027;-82
2021/08/04 14:08:40;;;;;;;7.95;6.70;;;19.00;99.90;;;;;;6287998;28;20468;-82
2021/08/04 14:11:41;;;;;;;6.28;4.50;;;19.10;99.90;;;;;;6287661;28;20374;-81
2021/08/04 14:14:41;;;;;;;6.38;4.20;;;19.10;99.90;;;;;;6320845;28;20842;-80
2021/08/04 14:17:42;;;;;;;4.78;3.95;;;19.10;99.90;;;;;;6321008;28;20032;-83
2021/08/04 14:20:42;;;;;;;4.68;4.22;;;19.10;99.90;;;;;;6287224;28;20027;-83
2021/08/04 14:23:43;;;;;;;5.07;4.28;;;19.20;99.90;;;;;;6320744;28;20020;-81
2021/08/04 14:26:44;;;;;;;4.85;3.90;;;19.20;99.90;;;;;;6303945;28;20024;-82
2021/08/04 14:29:44;;;;;;;4.68;4.03;;;19.30;99.90;;;;;;6320619;28;20111;-82
2021/08/04 14:32:45;;;;;;;4.22;3.78;;;19.30;99.90;;;;;;6303894;28;20032;-83
2021/08/04 14:35:46;;;;;;;5.15;4.32;;;19.20;99.90;;;;;;6286875;28;20170;-83
2021/08/04 14:38:46;;;;;;;7.20;4.32;;;19.20;99.90;;;;;;6303597;28;20024;-81
2021/08/04 14:41:47;;;;;;;6.13;4.65;;;19.10;99.90;;;;;;6320455;28;20046;-82
2021/08/04 14:44:48;;;;;;;5.07;4.18;;;;;;;;;;6286631;28;20442;-82
2021/08/04 14:47:50;;;;;;;5.80;4.20;;;19.00;99.90;;;;;;6320036;28;20032;-81
2021/08/04 14:50:51;;;;;;;7.40;4.72;;;18.90;99.90;;;;;;6303383;28;20028;-84
2021/08/04 14:53:51;;;;;;;6.93;4.18;;;18.80;99.90;;;;;;6321114;28;20040;-83
2021/08/04 14:56:53;;;;;;;5.57;4.13;;;18.50;99.90;;;;;;6286295;28;20441;-82
2021/08/04 14:59:53;;;;;;;6.37;4.13;;;18.50;99.90;;;;;;6303328;28;20381;-81
2021/08/04 15:02:54;;;;;;;5.78;4.68;;;18.90;99.90;;;;;;6302822;28;20107;-83
2021/08/04 15:05:54;;;;;;;5.75;4.68;;;18.20;99.90;;;;;;6319939;28;20085;-82
2021/08/04 15:08:55;;;;;;;4.90;4.15;;;18.20;99.90;;;;;;6301432;28;20035;-83
2021/08/04 15:11:56;;;;;;;5.30;4.50;;;18.20;99.90;;;;;;6302700;28;20233;-82
2021/08/04 15:14:56;;;;;;;5.07;4.53;;;18.30;99.90;;;;;;6302814;28;20070;-85
2021/08/04 15:17:57;;;;;;;5.70;5.07;;;18.30;99.90;;;;;;6319486;28;20039;-82
2021/08/04 15:20:57;;;;;;;4.90;4.40;;;18.40;99.90;;;;;;6294098;28;20660;-82
2021/08/04 15:23:58;;;;;;;6.10;4.68;;;18.40;99.90;;;;;;6302301;28;20378;-82
2021/08/04 15:27:00;;;;;;;4.47;4.05;;;18.40;99.90;;;;;;6285629;28;20028;-85
2021/08/04 15:30:01;;;;;;;;;;;18.40;99.90;;;;;;6286620;28;20020;-83
2021/08/04 15:33:02;;;;;;;4.95;4.35;;;18.30;99.90;;;;;;6320156;28;19912;-82
2021/08/04 15:36:04;;;;;;;5.63;4.00;;;18.20;99.90;;;;;;6301755;28;20373;-85
2021/08/04 15:39:05;;;;;;;4.93;3.90;;;18.10;99.90;;;;;;6302507;28;20035;-83
2021/08/04 15:42:06;;;;;;;6.30;4.53;;;18.00;99.90;;;;;;6301928;28;20024;-82
2021/08/04 15:45:07;;;;;;;6.60;4.40;;;18.00;99.90;;;;;;6301636;28;20374;-82
2021/08/04 15:48:07;;;;;;;5.72;3.75;;;18.00;99.90;;;;;;6285119;28;20111;-83
2021/08/04 15:51:08;;;;;;;4.75;4.03;;;18.10;99.90;;;;;;6301611;28;20646;-84
2021/08/04 15:54:09;;;;;;;6.25;5.20;;;18.10;99.90;;;;;;6301754;28;20051;-83
2021/08/04 15:57:10;;;;;;;5.25;3.95;;;18.20;99.90;;;;;;6300988;28;20521;-84
2021/08/04 16:00:12;;;;;;;6.28;4.70;;;18.30;99.90;;;;;;6300953;28;20034;-82
2021/08/04 16:03:12;;;;;;;7.00;4.38;;;16.50;99.90;;;;;;6318129;28;20369;-83
2021/08/04 16:06:13;;;;;;;4.10;3.70;;;18.60;99.90;;;;;;6301423;28;20028;-83